createdAt,value
2022-12-24T00:01:37.257Z,100340.16
2022-12-24T00:04:05.755Z,100356.59
2022-12-24T00:06:34.106Z,100356.69
2022-12-24T00:09:02.490Z,100364.00
2022-12-24T00:11:30.670Z,100366.34
2022-12-24T00:13:58.830Z,100372.19
2022-12-24T00:16:29.155Z,100376.63
2022-12-24T00:18:57.403Z,100381.06
2022-12-24T00:21:25.684Z,100382.63
2022-12-24T00:23:54.393Z,100383.38
2022-12-24T00:26:22.582Z,100375.38
2022-12-24T00:28:51.064Z,100380.53
2022-12-24T00:31:20.593Z,100392.41
2022-12-24T00:33:50.336Z,100393.22
2022-12-24T00:36:19.919Z,100389.09
2022-12-24T00:38:48.595Z,100397.44
2022-12-24T00:41:26.406Z,100401.56
2022-12-24T00:43:55.943Z,100409.44
2022-12-24T00:46:24.533Z,100400.97
2022-12-24T00:48:54.263Z,100398.16
2022-12-24T00:51:23.445Z,100400.72
2022-12-24T00:53:52.583Z,100393.72
2022-12-24T00:56:21.453Z,100404.03
2022-12-24T00:58:50.269Z,100407.09
2022-12-24T01:01:18.916Z,100398.66
2022-12-24T01:03:47.648Z,100391.84
2022-12-24T01:06:19.150Z,100392.53
2022-12-24T01:08:47.775Z,100400.28
2022-12-24T01:11:16.019Z,100398.56
2022-12-24T01:13:44.258Z,100401.06
2022-12-24T01:16:18.359Z,100398.31
2022-12-24T01:18:46.763Z,100406.16
2022-12-24T01:21:16.693Z,100404.34
2022-12-24T01:23:45.368Z,100400.28
2022-12-24T01:26:13.693Z,100396.91
2022-12-24T01:28:42.230Z,100405.56
2022-12-24T01:31:15.418Z,100408.63
2022-12-24T01:33:44.611Z,100408.88
2022-12-24T01:36:14.121Z,100413.03
2022-12-24T01:38:43.885Z,100408.75
2022-12-24T01:41:34.364Z,100420.59
2022-12-24T01:44:35.240Z,100422.91
2022-12-24T01:47:10.098Z,100428.69
2022-12-24T01:49:42.458Z,100420.88
2022-12-24T01:52:14.386Z,100420.97
2022-12-24T01:54:47.772Z,100424.47
2022-12-24T01:57:19.201Z,100416.72
2022-12-24T01:59:51.462Z,100401.84
2022-12-24T02:02:20.527Z,100418.75
2022-12-24T02:04:56.346Z,100427.03
2022-12-24T02:07:24.715Z,100422.00
2022-12-24T02:09:57.565Z,100428.06
2022-12-24T02:12:26.824Z,100428.81
2022-12-24T02:14:56.144Z,100411.56
2022-12-24T02:17:31.637Z,100429.47
2022-12-24T02:20:19.636Z,100422.16
2022-12-24T02:23:02.828Z,100435.81
2022-12-24T02:25:57.589Z,100444.31
2022-12-24T02:28:44.563Z,100452.38
2022-12-24T02:31:20.644Z,100465.75
2022-12-24T02:33:56.387Z,100465.34
2022-12-24T02:36:32.135Z,100456.94
2022-12-24T02:39:04.313Z,100473.56
2022-12-24T02:41:50.257Z,100462.19
2022-12-24T02:44:20.699Z,100475.97
2022-12-24T02:46:52.079Z,100477.56
2022-12-24T02:49:20.531Z,100469.63
2022-12-24T02:51:48.813Z,100488.50
2022-12-24T02:54:17.532Z,100489.16
2022-12-24T02:57:05.109Z,100489.72
2022-12-24T02:59:49.038Z,100488.00
2022-12-24T03:02:29.928Z,100489.31
2022-12-24T03:05:07.406Z,100484.00
2022-12-24T03:07:41.722Z,100482.91
2022-12-24T03:10:21.640Z,100497.84
2022-12-24T03:12:53.124Z,100490.25
2022-12-24T03:15:25.989Z,100497.72
2022-12-24T03:17:59.526Z,100501.13
2022-12-24T03:20:33.832Z,100497.47
2022-12-24T03:23:02.246Z,100508.69
2022-12-24T03:25:30.900Z,100504.38
2022-12-24T03:27:59.511Z,100499.13
2022-12-24T03:30:28.001Z,100510.94
2022-12-24T03:32:57.816Z,100513.75
2022-12-24T03:35:26.268Z,100513.72
2022-12-24T03:37:54.844Z,100517.03
2022-12-24T03:40:23.213Z,100531.56
2022-12-24T03:42:51.491Z,100528.16
2022-12-24T03:45:20.096Z,100545.53
2022-12-24T03:47:48.379Z,100534.94
2022-12-24T03:50:18.194Z,100527.03
2022-12-24T03:52:46.496Z,100526.91
2022-12-24T03:55:14.898Z,100537.41
2022-12-24T03:57:44.627Z,100536.47
2022-12-24T04:00:14.240Z,100541.88
2022-12-24T04:02:42.929Z,100539.97
2022-12-24T04:05:15.823Z,100540.53
2022-12-24T04:07:46.216Z,100539.47
2022-12-24T04:10:15.049Z,100544.63
2022-12-24T04:12:43.432Z,100505.06
2022-12-24T04:15:12.466Z,100539.22
2022-12-24T04:17:40.614Z,100539.31
2022-12-24T04:20:10.177Z,100516.44
2022-12-24T04:22:38.439Z,100546.19
2022-12-24T04:25:09.662Z,100552.03
2022-12-24T04:27:38.545Z,100542.59
2022-12-24T04:30:08.288Z,100539.09
2022-12-24T04:32:36.587Z,100549.25
2022-12-24T04:35:04.923Z,100558.53
2022-12-24T04:37:35.571Z,100552.53
2022-12-24T04:40:03.951Z,100549.06
2022-12-24T04:42:33.645Z,100552.53
2022-12-24T04:45:01.953Z,100558.47
2022-12-24T04:47:30.209Z,100557.69
2022-12-24T04:49:58.459Z,100550.63
2022-12-24T04:52:26.822Z,100539.31
2022-12-24T04:54:54.981Z,100543.78
2022-12-24T04:57:23.518Z,100545.00
2022-12-24T04:59:53.286Z,100550.19
2022-12-24T05:02:22.192Z,100556.19
2022-12-24T05:04:50.653Z,100552.53
2022-12-24T05:07:19.022Z,100550.88
2022-12-24T05:09:47.201Z,100549.13
2022-12-24T05:12:15.475Z,100539.91
2022-12-24T05:14:43.807Z,100555.72
2022-12-24T05:17:13.546Z,100564.31
2022-12-24T05:19:42.052Z,100575.81
2022-12-24T05:22:27.710Z,100570.00
2022-12-24T05:25:13.532Z,100562.94
2022-12-24T05:27:47.413Z,100555.63
2022-12-24T05:30:19.398Z,100548.72
2022-12-24T05:32:49.116Z,100556.50
2022-12-24T05:35:17.428Z,100555.38
2022-12-24T05:37:45.724Z,100530.81
2022-12-24T05:40:14.300Z,100550.38
2022-12-24T05:42:42.449Z,100564.31
2022-12-24T05:45:11.604Z,100564.44
2022-12-24T05:47:43.472Z,100563.69
2022-12-24T05:50:13.884Z,100569.31
2022-12-24T05:52:42.328Z,100573.91
2022-12-24T05:55:11.428Z,100574.47
2022-12-24T05:57:41.616Z,100591.41
2022-12-24T06:00:11.137Z,100587.84
2022-12-24T06:02:39.409Z,100592.13
2022-12-24T06:05:08.208Z,100595.56
2022-12-24T06:07:38.341Z,100596.97
2022-12-24T06:10:07.879Z,100592.78
2022-12-24T06:12:36.888Z,100593.59
2022-12-24T06:15:07.166Z,100599.00
2022-12-24T06:17:35.602Z,100599.84
2022-12-24T06:20:03.929Z,100597.28
2022-12-24T06:22:32.340Z,100604.06
2022-12-24T06:25:01.968Z,100602.28
2022-12-24T06:27:30.185Z,100588.59
2022-12-24T06:29:58.688Z,100594.75
2022-12-24T06:32:29.935Z,100599.84
2022-12-24T06:34:58.533Z,100607.28
2022-12-24T06:37:26.892Z,100615.72
2022-12-24T06:39:55.015Z,100617.88
2022-12-24T06:42:24.893Z,100619.38
2022-12-24T06:44:53.266Z,100631.41
2022-12-24T06:47:22.098Z,100631.56
2022-12-24T06:49:50.583Z,100631.72
2022-12-24T06:52:18.758Z,100625.13
2022-12-24T06:54:46.884Z,100639.97
2022-12-24T06:57:15.426Z,100650.00
2022-12-24T06:59:45.179Z,100651.50
2022-12-24T07:02:13.484Z,100636.03
2022-12-24T07:04:41.778Z,100661.13
2022-12-24T07:07:10.215Z,100644.69
2022-12-24T07:09:38.638Z,100653.25
2022-12-24T07:12:07.255Z,100641.94
2022-12-24T07:14:35.700Z,100650.00
2022-12-24T07:17:05.581Z,100648.25
2022-12-24T07:19:34.468Z,100661.94
2022-12-24T07:22:02.966Z,100664.56
2022-12-24T07:24:31.208Z,100675.75
2022-12-24T07:26:59.660Z,100674.13
2022-12-24T07:29:28.070Z,100668.72
2022-12-24T07:31:56.383Z,100674.03
2022-12-24T07:34:26.148Z,100668.97
2022-12-24T07:36:54.474Z,100673.47
2022-12-24T07:39:22.835Z,100679.56
2022-12-24T07:41:51.439Z,100679.72
2022-12-24T07:44:19.781Z,100676.31
2022-12-24T07:46:47.983Z,100672.88
2022-12-24T07:49:16.211Z,100688.25
2022-12-24T07:51:45.981Z,100687.16
2022-12-24T07:54:14.072Z,100691.22
2022-12-24T07:56:42.443Z,100687.69
2022-12-24T07:59:13.383Z,100695.97
2022-12-24T08:01:41.957Z,100705.47
2022-12-24T08:04:13.478Z,100699.22
2022-12-24T08:06:42.732Z,100707.94
2022-12-24T08:09:15.616Z,100696.50
2022-12-24T08:11:51.308Z,100705.97
2022-12-24T08:14:20.166Z,100713.19
2022-12-24T08:16:48.593Z,100706.25
2022-12-24T08:19:18.319Z,100708.31
2022-12-24T08:21:46.620Z,100713.53
2022-12-24T08:24:16.553Z,100715.25
2022-12-24T08:26:44.823Z,100726.34
2022-12-24T08:29:13.180Z,100723.03
2022-12-24T08:31:41.569Z,100718.81
2022-12-24T08:34:10.352Z,100716.34
2022-12-24T08:36:38.736Z,100725.75
2022-12-24T08:39:09.325Z,100716.25
2022-12-24T08:41:38.951Z,100729.63
2022-12-24T08:44:07.276Z,100731.53
2022-12-24T08:46:35.697Z,100740.97
2022-12-24T08:49:04.516Z,100728.13
2022-12-24T08:51:32.680Z,100726.50
2022-12-24T08:54:00.959Z,100752.44
2022-12-24T08:56:30.051Z,100749.06
2022-12-24T08:59:00.141Z,100758.63
2022-12-24T09:01:28.671Z,100762.88
2022-12-24T09:03:56.793Z,100765.47
2022-12-24T09:06:25.048Z,100759.47
2022-12-24T09:08:53.338Z,100761.25
2022-12-24T09:11:22.637Z,100761.25
2022-12-24T09:13:51.076Z,100769.94
2022-12-24T09:16:22.780Z,100764.63
2022-12-24T09:18:51.341Z,100771.72
2022-12-24T09:21:19.560Z,100764.91
2022-12-24T09:23:49.777Z,100773.75
2022-12-24T09:26:20.688Z,100778.16
2022-12-24T09:28:49.663Z,100772.25
2022-12-24T09:31:18.260Z,100776.53
2022-12-24T09:33:49.704Z,100785.16
2022-12-24T09:36:18.459Z,100793.03
2022-12-24T09:38:46.864Z,100789.78
2022-12-24T09:41:17.706Z,100806.38
2022-12-24T09:43:51.197Z,100800.38
2022-12-24T09:46:28.329Z,100800.50
2022-12-24T09:49:03.893Z,100798.84
2022-12-24T09:51:37.667Z,100802.53
2022-12-24T09:54:14.349Z,100805.00
2022-12-24T09:56:49.383Z,100800.38
2022-12-24T09:59:21.215Z,100793.84
2022-12-24T10:01:51.335Z,100793.97
2022-12-24T10:04:22.580Z,100791.78
2022-12-24T10:06:55.246Z,100796.25
2022-12-24T10:09:33.019Z,100793.25
2022-12-24T10:12:09.921Z,100768.41
2022-12-24T10:14:55.152Z,100795.41
2022-12-24T10:17:45.587Z,100796.75
2022-12-24T10:20:32.311Z,100800.69
2022-12-24T10:23:08.947Z,100801.06
2022-12-24T10:25:44.136Z,100777.03
2022-12-24T10:28:17.489Z,100795.03
2022-12-24T10:30:48.912Z,100795.16
2022-12-24T10:33:21.893Z,100796.94
2022-12-24T10:35:56.351Z,100794.66
2022-12-24T10:38:25.992Z,100799.84
2022-12-24T10:40:56.530Z,100797.44
2022-12-24T10:43:26.923Z,100810.66
2022-12-24T10:45:58.050Z,100803.72
2022-12-24T10:48:31.226Z,100802.59
2022-12-24T10:51:04.416Z,100792.47
2022-12-24T10:53:41.953Z,100801.06
2022-12-24T10:56:13.225Z,100793.91
2022-12-24T10:58:45.899Z,100796.22
2022-12-24T11:01:15.609Z,100803.84
2022-12-24T11:03:44.210Z,100803.72
2022-12-24T11:06:16.018Z,100806.31
2022-12-24T11:08:46.681Z,100812.53
2022-12-24T11:11:17.572Z,100814.81
2022-12-24T11:13:47.613Z,100815.16
2022-12-24T11:16:22.477Z,100818.72
2022-12-24T11:18:53.417Z,100813.63
2022-12-24T11:21:26.158Z,100817.28
2022-12-24T11:23:57.463Z,100816.00
2022-12-24T11:26:29.519Z,100819.41
2022-12-24T11:29:14.846Z,100814.81
2022-12-24T11:31:43.615Z,100821.41
2022-12-24T11:34:26.668Z,100827.03
2022-12-24T11:37:14.474Z,100826.38
2022-12-24T11:39:48.876Z,100817.28
2022-12-24T11:42:33.873Z,100815.69
2022-12-24T11:45:05.824Z,100815.91
2022-12-24T11:47:39.094Z,100816.16
2022-12-24T11:50:26.000Z,100812.38
2022-12-24T11:53:00.478Z,100822.94
2022-12-24T11:55:37.976Z,100809.19
2022-12-24T11:58:16.737Z,100822.38
2022-12-24T12:00:47.561Z,100814.97
2022-12-24T12:03:29.212Z,100809.78
2022-12-24T12:05:59.442Z,100811.91
2022-12-24T12:08:31.746Z,100817.31
2022-12-24T12:11:01.129Z,100816.72
2022-12-24T12:13:33.758Z,100817.44
2022-12-24T12:16:14.324Z,100829.22
2022-12-24T12:18:49.172Z,100823.78
2022-12-24T12:21:21.225Z,100828.84
2022-12-24T12:23:54.395Z,100819.41
2022-12-24T12:26:26.497Z,100818.09
2022-12-24T12:28:59.871Z,100812.13
2022-12-24T12:31:34.243Z,100817.31
2022-12-24T12:34:10.402Z,100822.84
2022-12-24T12:36:46.200Z,100829.44
2022-12-24T12:39:16.457Z,100835.53
2022-12-24T12:41:54.692Z,100839.53
2022-12-24T12:44:46.157Z,100842.78
2022-12-24T12:47:41.804Z,100843.25
2022-12-24T12:50:18.396Z,100827.78
2022-12-24T12:53:00.930Z,100846.47
2022-12-24T12:55:42.747Z,100834.13
2022-12-24T12:58:19.193Z,100846.59
2022-12-24T13:00:52.931Z,100851.91
2022-12-24T13:03:57.875Z,100851.78
2022-12-24T13:06:58.087Z,100841.56
2022-12-24T13:09:54.880Z,100838.00
2022-12-24T13:12:42.444Z,100832.81
2022-12-24T13:15:37.644Z,100834.91
2022-12-24T13:18:27.467Z,100839.78
2022-12-24T13:20:56.304Z,100830.16
2022-12-24T13:23:27.616Z,100836.47
2022-12-24T13:25:58.217Z,100820.84
2022-12-24T13:28:36.078Z,100822.59
2022-12-24T13:31:30.207Z,100820.00
2022-12-24T13:34:01.715Z,100824.50
2022-12-24T13:36:59.557Z,100835.66
2022-12-24T13:39:27.879Z,100832.28
2022-12-24T13:41:56.312Z,100841.47
2022-12-24T13:44:33.200Z,100838.13
2022-12-24T13:47:33.134Z,100837.91
2022-12-24T13:50:22.612Z,100836.00
2022-12-24T13:52:54.397Z,100838.47
2022-12-24T13:55:23.455Z,100833.66
2022-12-24T13:57:58.024Z,100834.25
2022-12-24T14:00:40.023Z,100839.56
2022-12-24T14:03:25.067Z,100854.69
2022-12-24T14:05:56.898Z,100847.66
2022-12-24T14:08:32.811Z,100853.31
2022-12-24T14:11:07.070Z,100844.47
2022-12-24T14:14:09.318Z,100846.00
2022-12-24T14:16:49.297Z,100853.50
2022-12-24T14:19:21.466Z,100865.53
2022-12-24T14:21:56.812Z,100858.22
2022-12-24T14:24:27.511Z,100859.75
2022-12-24T14:27:00.187Z,100844.47
2022-12-24T14:29:32.479Z,100848.25
2022-12-24T14:32:05.231Z,100857.16
2022-12-24T14:34:33.600Z,100864.13
2022-12-24T14:37:05.715Z,100869.28
2022-12-24T14:39:37.859Z,100880.34
2022-12-24T14:42:23.276Z,100875.09
2022-12-24T14:45:01.052Z,100874.00
2022-12-24T14:47:39.121Z,100868.81
2022-12-24T14:50:31.082Z,100875.81
2022-12-24T14:53:13.416Z,100878.91
2022-12-24T14:55:47.404Z,100882.81
2022-12-24T14:58:32.107Z,100878.69
2022-12-24T15:01:02.437Z,100877.16
2022-12-24T15:03:33.730Z,100880.94
2022-12-24T15:06:05.994Z,100884.94
2022-12-24T15:08:38.866Z,100884.81
2022-12-24T15:11:10.174Z,100885.53
2022-12-24T15:13:40.962Z,100887.25
2022-12-24T15:16:11.505Z,100889.03
2022-12-24T15:18:46.860Z,100902.09
2022-12-24T15:21:20.687Z,100898.22
2022-12-24T15:23:51.194Z,100889.25
2022-12-24T15:26:26.295Z,100899.38
2022-12-24T15:29:02.324Z,100902.91
2022-12-24T15:31:32.751Z,100904.16
2022-12-24T15:34:02.466Z,100902.88
2022-12-24T15:36:34.134Z,100901.94
2022-12-24T15:39:05.745Z,100905.19
2022-12-24T15:42:01.338Z,100913.38
2022-12-24T15:44:34.099Z,100912.94
2022-12-24T15:47:04.012Z,100918.06
2022-12-24T15:49:35.870Z,100918.69
2022-12-24T15:52:06.919Z,100914.47
2022-12-24T15:54:36.509Z,100913.38
2022-12-24T15:57:15.779Z,100919.97
2022-12-24T15:59:44.319Z,100914.78
2022-12-24T16:02:38.412Z,100911.13
2022-12-24T16:05:32.645Z,100921.34
2022-12-24T16:08:23.320Z,100915.53
2022-12-24T16:10:54.981Z,100916.53
2022-12-24T16:13:26.522Z,100929.41
2022-12-24T16:15:57.329Z,100919.56
2022-12-24T16:18:27.659Z,100911.13
2022-12-24T16:20:57.992Z,100919.97
2022-12-24T16:23:31.196Z,100929.41
2022-12-24T16:26:00.106Z,100925.13
2022-12-24T16:28:28.335Z,100933.56
2022-12-24T16:30:57.429Z,100931.81
2022-12-24T16:33:25.737Z,100921.34
2022-12-24T16:35:54.136Z,100937.78
2022-12-24T16:38:24.037Z,100930.88
2022-12-24T16:40:52.222Z,100930.03
2022-12-24T16:43:38.104Z,100925.00
2022-12-24T16:46:08.405Z,100917.81
2022-12-24T16:48:39.312Z,100915.88
2022-12-24T16:51:07.859Z,100933.69
2022-12-24T16:53:37.945Z,100930.16
2022-12-24T16:56:10.390Z,100922.38
2022-12-24T16:58:38.607Z,100920.06
2022-12-24T17:01:10.965Z,100919.13
2022-12-24T17:03:39.492Z,100926.31
2022-12-24T17:06:09.494Z,100907.72
2022-12-24T17:08:39.002Z,100922.53
2022-12-24T17:11:07.865Z,100921.97
2022-12-24T17:13:35.983Z,100921.22
2022-12-24T17:16:04.275Z,100911.78
2022-12-24T17:18:32.735Z,100903.03
2022-12-24T17:21:01.712Z,100915.53
2022-12-24T17:23:30.029Z,100921.47
2022-12-24T17:26:00.326Z,100915.53
2022-12-24T17:28:28.406Z,100914.84
2022-12-24T17:30:58.756Z,100907.22
2022-12-24T17:33:27.153Z,100926.28
2022-12-24T17:35:55.389Z,100936.97
2022-12-24T17:38:23.581Z,100932.75
2022-12-24T17:40:52.015Z,100933.81
2022-12-24T17:43:21.529Z,100937.34
2022-12-24T17:45:49.658Z,100928.78
2022-12-24T17:48:18.291Z,100939.25
2022-12-24T17:50:46.360Z,100941.25
2022-12-24T17:53:14.551Z,100947.31
2022-12-24T17:55:44.008Z,100951.84
2022-12-24T17:58:14.305Z,100955.47
2022-12-24T18:00:44.006Z,100952.44
2022-12-24T18:03:15.409Z,100938.69
2022-12-24T18:05:43.655Z,100940.47
2022-12-24T18:08:12.023Z,100957.75
2022-12-24T18:10:40.425Z,100918.78
2022-12-24T18:13:14.010Z,100967.03
2022-12-24T18:15:48.710Z,100967.75
2022-12-24T18:18:16.951Z,100971.25
2022-12-24T18:20:47.030Z,100966.09
2022-12-24T18:23:15.686Z,100974.91
2022-12-24T18:25:43.994Z,100971.13
2022-12-24T18:28:12.433Z,100963.50
2022-12-24T18:30:40.725Z,100969.63
2022-12-24T18:33:10.438Z,100968.22
2022-12-24T18:35:38.700Z,100963.84
2022-12-24T18:38:07.135Z,100963.31
2022-12-24T18:40:38.377Z,100963.31
2022-12-24T18:43:09.251Z,100967.03
2022-12-24T18:45:42.180Z,100970.97
2022-12-24T18:48:12.295Z,100960.13
2022-12-24T18:50:42.151Z,100965.41
2022-12-24T18:53:11.376Z,100974.13
2022-12-24T18:55:40.304Z,100969.16
2022-12-24T18:58:08.654Z,100968.66
2022-12-24T19:00:36.841Z,100969.63
2022-12-24T19:03:05.693Z,100962.34
2022-12-24T19:05:35.371Z,100977.53
2022-12-24T19:08:22.030Z,100984.56
2022-12-24T19:10:54.771Z,100985.47
2022-12-24T19:13:22.948Z,100968.06
2022-12-24T19:15:51.171Z,100979.66
2022-12-24T19:18:19.667Z,100980.66
2022-12-24T19:20:49.263Z,100984.06
2022-12-24T19:23:17.479Z,100986.59
2022-12-24T19:25:46.143Z,100993.53
2022-12-24T19:28:14.438Z,101002.16
2022-12-24T19:30:43.777Z,100995.81
2022-12-24T19:33:12.356Z,100993.19
2022-12-24T19:35:40.533Z,100990.66
2022-12-24T19:38:10.069Z,100988.00
2022-12-24T19:40:38.778Z,100991.53
2022-12-24T19:43:06.993Z,100996.97
2022-12-24T19:45:35.562Z,100991.66
2022-12-24T19:48:03.963Z,100990.66
2022-12-24T19:50:33.104Z,100988.19
2022-12-24T19:53:01.732Z,100989.88
2022-12-24T19:55:31.650Z,100990.59
2022-12-24T19:58:00.108Z,100989.88
2022-12-24T20:00:28.213Z,100993.53
2022-12-24T20:02:56.755Z,101000.13
2022-12-24T20:05:24.992Z,101001.88
2022-12-24T20:07:53.089Z,100991.66
2022-12-24T20:10:21.365Z,101000.50
2022-12-24T20:12:50.950Z,101004.00
2022-12-24T20:15:19.216Z,101009.19
2022-12-24T20:17:52.302Z,101006.00
2022-12-24T20:20:20.548Z,100986.69
2022-12-24T20:22:48.795Z,101004.72
2022-12-24T20:25:17.110Z,101013.19
2022-12-24T20:27:45.188Z,101011.44
2022-12-24T20:30:15.981Z,101020.75
2022-12-24T20:32:44.293Z,101023.53
2022-12-24T20:35:12.448Z,101011.91
2022-12-24T20:37:45.911Z,101014.72
2022-12-24T20:40:15.172Z,101016.25
2022-12-24T20:42:43.626Z,101029.50
2022-12-24T20:45:11.912Z,101030.25
2022-12-24T20:47:41.723Z,101026.38
2022-12-24T20:50:10.465Z,101036.19
2022-12-24T20:52:38.624Z,101037.84
2022-12-24T20:55:07.924Z,101024.47
2022-12-24T20:57:37.489Z,101027.31
2022-12-24T21:00:06.908Z,101021.63
2022-12-24T21:02:35.803Z,101019.84
2022-12-24T21:05:09.167Z,101020.72
2022-12-24T21:07:40.990Z,101019.19
2022-12-24T21:10:10.230Z,101025.31
2022-12-24T21:12:50.217Z,101032.38
2022-12-24T21:15:19.237Z,101028.91
2022-12-24T21:17:47.597Z,101033.22
2022-12-24T21:20:18.878Z,101036.63
2022-12-24T21:22:47.507Z,101034.97
2022-12-24T21:25:15.764Z,101034.97
2022-12-24T21:27:44.164Z,101042.13
2022-12-24T21:30:12.929Z,101031.44
2022-12-24T21:32:40.958Z,101032.97
2022-12-24T21:35:09.374Z,101035.63
2022-12-24T21:37:39.299Z,101047.53
2022-12-24T21:40:09.665Z,101045.78
2022-12-24T21:42:40.789Z,101043.13
2022-12-24T21:45:10.655Z,101048.59
2022-12-24T21:47:38.854Z,101044.19
2022-12-24T21:50:32.047Z,101040.81
2022-12-24T21:53:15.839Z,101043.31
2022-12-24T21:55:44.267Z,101051.81
2022-12-24T21:58:11.446Z,101049.91
2022-12-24T22:00:39.630Z,101048.38
2022-12-24T22:03:10.977Z,101050.88
2022-12-24T22:05:39.051Z,101046.75
2022-12-24T22:08:27.951Z,101041.22
2022-12-24T22:11:25.058Z,101037.69
2022-12-24T22:13:53.665Z,101052.50
2022-12-24T22:16:21.844Z,101043.19
2022-12-24T22:18:50.200Z,101034.28
2022-12-24T22:21:18.727Z,101035.69
2022-12-24T22:23:48.460Z,101037.22
2022-12-24T22:26:18.764Z,101027.63
2022-12-24T22:28:47.412Z,101031.03
2022-12-24T22:31:19.548Z,101030.16
2022-12-24T22:33:47.893Z,101030.97
2022-12-24T22:36:16.116Z,101033.69
2022-12-24T22:38:45.281Z,101016.63
2022-12-24T22:41:15.232Z,101020.28
2022-12-24T22:43:43.827Z,101018.81
2022-12-24T22:46:14.452Z,101025.53
2022-12-24T22:48:44.588Z,101028.84
2022-12-24T22:51:14.319Z,101013.44
2022-12-24T22:53:42.891Z,100997.31
2022-12-24T22:56:16.828Z,101022.03
2022-12-24T22:58:45.495Z,101015.44
2022-12-24T23:01:14.092Z,101020.72
2022-12-24T23:03:42.515Z,101026.03
2022-12-24T23:06:11.108Z,101026.03
2022-12-24T23:08:39.440Z,101027.94
2022-12-24T23:11:12.626Z,101045.22
2022-12-24T23:14:02.200Z,101034.03
2022-12-24T23:16:31.896Z,101028.91
2022-12-24T23:19:02.195Z,101024.38
2022-12-24T23:21:30.600Z,101019.38
2022-12-24T23:24:00.233Z,101022.69
2022-12-24T23:26:29.621Z,101019.06
2022-12-24T23:28:59.385Z,101017.22
2022-12-24T23:31:27.959Z,101023.25
2022-12-24T23:33:56.195Z,101012.03
2022-12-24T23:36:24.341Z,101015.44
2022-12-24T23:38:54.571Z,101010.25
2022-12-24T23:41:22.922Z,101008.72
2022-12-24T23:43:51.086Z,101013.78
2022-12-24T23:46:21.452Z,101019.84
2022-12-24T23:48:49.919Z,101011.31
2022-12-24T23:51:19.725Z,101015.56
2022-12-24T23:53:48.200Z,101022.47
2022-12-24T23:56:16.513Z,101018.06
2022-12-24T23:58:45.832Z,100999.75
